createdAt,value
2018-11-25T00:00:24.708Z,15.73
2018-11-25T00:01:26.519Z,15.74
2018-11-25T00:02:28.283Z,15.73
2018-11-25T00:03:30.047Z,15.73
2018-11-25T00:04:31.827Z,15.73
2018-11-25T00:05:33.588Z,15.74
2018-11-25T00:06:35.388Z,15.73
2018-11-25T00:07:38.189Z,15.73
2018-11-25T00:08:39.947Z,15.73
2018-11-25T00:09:41.720Z,15.73
2018-11-25T00:10:43.507Z,15.72
2018-11-25T00:11:45.303Z,15.72
2018-11-25T00:12:47.069Z,15.72
2018-11-25T00:13:48.860Z,15.72
2018-11-25T00:14:50.626Z,15.72
2018-11-25T00:15:52.401Z,15.71
2018-11-25T00:16:54.185Z,15.71
2018-11-25T00:17:55.951Z,15.71
2018-11-25T00:18:58.105Z,15.70
2018-11-25T00:19:59.881Z,15.71
2018-11-25T00:21:01.653Z,15.70
2018-11-25T00:22:03.460Z,15.70
2018-11-25T00:23:05.246Z,15.70
2018-11-25T00:24:07.074Z,15.70
2018-11-25T00:25:08.844Z,15.71
2018-11-25T00:26:10.643Z,15.71
2018-11-25T00:27:12.442Z,15.69
2018-11-25T00:28:15.242Z,15.70
2018-11-25T00:29:17.025Z,15.70
2018-11-25T00:30:25.449Z,15.70
2018-11-25T00:31:27.224Z,15.70
2018-11-25T00:32:29.024Z,15.69
2018-11-25T00:33:32.092Z,15.70
2018-11-25T00:34:33.875Z,15.68
2018-11-25T00:35:35.641Z,15.68
2018-11-25T00:36:38.284Z,15.68
2018-11-25T00:37:43.338Z,15.67
2018-11-25T00:38:41.882Z,15.68
2018-11-25T00:39:43.705Z,15.68
2018-11-25T00:40:45.476Z,15.68
2018-11-25T00:41:47.292Z,15.69
2018-11-25T00:42:49.109Z,15.68
2018-11-25T00:43:50.899Z,15.67
2018-11-25T00:44:52.732Z,15.67
2018-11-25T00:45:54.662Z,15.68
2018-11-25T00:46:56.440Z,15.67
2018-11-25T00:47:58.711Z,15.67
2018-11-25T00:49:01.738Z,15.67
2018-11-25T00:50:04.505Z,15.67
2018-11-25T00:51:07.658Z,15.68
2018-11-25T00:52:10.614Z,15.67
2018-11-25T00:53:13.647Z,15.67
2018-11-25T00:54:16.576Z,15.67
2018-11-25T00:55:19.495Z,15.67
2018-11-25T00:56:22.451Z,15.66
2018-11-25T00:57:25.352Z,15.66
2018-11-25T00:58:28.678Z,15.67
2018-11-25T00:59:31.707Z,15.66
2018-11-25T01:00:34.687Z,15.66
2018-11-25T01:01:41.886Z,15.65
2018-11-25T01:02:49.471Z,15.65
2018-11-25T01:03:51.632Z,15.65
2018-11-25T01:04:53.397Z,15.65
2018-11-25T01:05:55.163Z,15.64
2018-11-25T01:06:57.048Z,15.65
2018-11-25T01:07:58.844Z,15.64
2018-11-25T01:09:00.633Z,15.65
2018-11-25T01:10:02.417Z,15.65
2018-11-25T01:11:04.260Z,15.64
2018-11-25T01:12:07.066Z,15.63
2018-11-25T01:13:08.874Z,15.65
2018-11-25T01:14:10.721Z,15.65
2018-11-25T01:15:12.519Z,15.64
2018-11-25T01:16:14.291Z,15.63
2018-11-25T01:17:16.049Z,15.64
2018-11-25T01:18:17.803Z,15.64
2018-11-25T01:19:20.460Z,15.64
2018-11-25T01:20:22.232Z,15.63
2018-11-25T01:21:24.005Z,15.64
2018-11-25T01:22:25.804Z,15.63
2018-11-25T01:23:27.579Z,15.63
2018-11-25T01:24:29.363Z,15.63
2018-11-25T01:25:31.136Z,15.63
2018-11-25T01:26:32.885Z,15.62
2018-11-25T01:27:34.637Z,15.63
2018-11-25T01:28:36.397Z,15.60
2018-11-25T01:29:38.307Z,15.62
2018-11-25T01:30:40.078Z,15.62
2018-11-25T01:31:41.839Z,15.62
2018-11-25T01:32:43.610Z,15.62
2018-11-25T01:33:45.363Z,15.61
2018-11-25T01:34:47.147Z,15.60
2018-11-25T01:35:48.919Z,15.61
2018-11-25T01:36:50.665Z,15.60
2018-11-25T01:37:52.424Z,15.59
2018-11-25T01:38:54.191Z,15.60
2018-11-25T01:39:56.010Z,15.60
2018-11-25T01:40:57.806Z,15.60
2018-11-25T01:41:59.571Z,15.59
2018-11-25T01:43:01.344Z,15.60
2018-11-25T01:44:03.115Z,15.61
2018-11-25T01:45:04.903Z,15.59
2018-11-25T01:46:06.659Z,15.59
2018-11-25T01:47:08.427Z,15.60
2018-11-25T01:48:10.218Z,15.61
2018-11-25T01:49:11.964Z,15.60
2018-11-25T01:50:13.765Z,15.60
2018-11-25T01:51:15.535Z,15.59
2018-11-25T01:52:17.299Z,15.60
2018-11-25T01:53:20.264Z,15.59
2018-11-25T01:54:22.020Z,15.59
2018-11-25T01:55:23.799Z,15.58
2018-11-25T01:56:25.577Z,15.57
2018-11-25T01:57:27.383Z,15.58
2018-11-25T01:58:29.167Z,15.58
2018-11-25T01:59:30.921Z,15.58
2018-11-25T02:00:32.712Z,15.59
2018-11-25T02:01:34.468Z,15.58
2018-11-25T02:02:36.216Z,15.58
2018-11-25T02:03:38.334Z,15.58
2018-11-25T02:04:40.113Z,15.59
2018-11-25T02:05:41.896Z,15.58
2018-11-25T02:06:44.058Z,15.58
2018-11-25T02:07:45.821Z,15.57
2018-11-25T02:08:47.618Z,15.58
2018-11-25T02:09:49.416Z,15.57
2018-11-25T02:10:51.208Z,15.56
2018-11-25T02:11:52.988Z,15.57
2018-11-25T02:12:54.779Z,15.57
2018-11-25T02:13:56.556Z,15.56
2018-11-25T02:14:58.303Z,15.57
2018-11-25T02:16:00.084Z,15.56
2018-11-25T02:17:01.830Z,15.57
2018-11-25T02:18:03.613Z,15.57
2018-11-25T02:19:05.397Z,15.57
2018-11-25T02:20:07.179Z,15.56
2018-11-25T02:21:10.203Z,15.57
2018-11-25T02:22:13.696Z,15.56
2018-11-25T02:23:15.479Z,15.55
2018-11-25T02:24:17.300Z,15.56
2018-11-25T02:25:19.139Z,15.55
2018-11-25T02:26:20.936Z,15.55
2018-11-25T02:27:22.692Z,15.55
2018-11-25T02:28:24.473Z,15.56
2018-11-25T02:29:26.226Z,15.56
2018-11-25T02:30:27.989Z,15.55
2018-11-25T02:31:29.764Z,15.54
2018-11-25T02:32:31.510Z,15.56
2018-11-25T02:33:33.273Z,15.55
2018-11-25T02:34:35.028Z,15.54
2018-11-25T02:35:36.784Z,15.54
2018-11-25T02:36:38.553Z,15.54
2018-11-25T02:37:40.354Z,15.55
2018-11-25T02:38:42.142Z,15.53
2018-11-25T02:39:43.903Z,15.53
2018-11-25T02:40:45.672Z,15.54
2018-11-25T02:41:47.465Z,15.54
2018-11-25T02:42:49.210Z,15.52
2018-11-25T02:43:50.984Z,15.54
2018-11-25T02:44:52.737Z,15.53
2018-11-25T02:45:54.488Z,15.54
2018-11-25T02:46:56.259Z,15.53
2018-11-25T02:47:58.832Z,15.52
2018-11-25T02:49:00.598Z,15.52
2018-11-25T02:50:02.354Z,15.53
2018-11-25T02:51:04.095Z,15.53
2018-11-25T02:52:05.882Z,15.52
2018-11-25T02:53:07.628Z,15.53
2018-11-25T02:54:09.772Z,15.53
2018-11-25T02:55:11.528Z,15.52
2018-11-25T02:56:13.559Z,15.53
2018-11-25T02:57:19.590Z,15.52
2018-11-25T02:58:21.346Z,15.52
2018-11-25T02:59:23.090Z,15.52
2018-11-25T03:00:24.841Z,15.51
2018-11-25T03:01:26.600Z,15.51
2018-11-25T03:02:28.388Z,15.52
2018-11-25T03:03:30.142Z,15.51
2018-11-25T03:04:31.906Z,15.51
2018-11-25T03:05:33.666Z,15.50
2018-11-25T03:06:35.410Z,15.51
2018-11-25T03:07:37.179Z,15.50
2018-11-25T03:08:38.945Z,15.52
2018-11-25T03:09:40.706Z,15.50
2018-11-25T03:10:42.480Z,15.51
2018-11-25T03:11:44.238Z,15.50
2018-11-25T03:12:46.026Z,15.50
2018-11-25T03:13:47.789Z,15.50
2018-11-25T03:14:49.552Z,15.51
2018-11-25T03:15:51.794Z,15.50
2018-11-25T03:16:53.560Z,15.49
2018-11-25T03:17:55.343Z,15.49
2018-11-25T03:18:58.874Z,15.49
2018-11-25T03:20:00.945Z,15.50
2018-11-25T03:21:02.716Z,15.49
2018-11-25T03:22:04.487Z,15.50
2018-11-25T03:23:06.259Z,15.49
2018-11-25T03:24:08.011Z,15.50
2018-11-25T03:25:09.773Z,15.50
2018-11-25T03:26:11.529Z,15.50
2018-11-25T03:27:13.331Z,15.50
2018-11-25T03:28:15.113Z,15.49
2018-11-25T03:29:18.251Z,15.49
2018-11-25T03:30:20.030Z,15.49
2018-11-25T03:31:21.785Z,15.48
2018-11-25T03:32:23.558Z,15.48
2018-11-25T03:33:25.342Z,15.49
2018-11-25T03:34:27.100Z,15.49
2018-11-25T03:35:28.853Z,15.48
2018-11-25T03:36:30.598Z,15.49
2018-11-25T03:37:32.355Z,15.48
2018-11-25T03:38:34.157Z,15.48
2018-11-25T03:39:36.011Z,15.48
2018-11-25T03:40:37.775Z,15.48
2018-11-25T03:41:39.531Z,15.48
2018-11-25T03:42:41.314Z,15.48
2018-11-25T03:43:43.111Z,15.48
2018-11-25T03:44:44.867Z,15.48
2018-11-25T03:45:48.348Z,15.48
2018-11-25T03:46:50.118Z,15.48
2018-11-25T03:47:51.867Z,15.47
2018-11-25T03:48:53.656Z,15.48
2018-11-25T03:49:55.409Z,15.47
2018-11-25T03:50:58.322Z,15.47
2018-11-25T03:52:00.077Z,15.48
2018-11-25T03:53:01.828Z,15.48
2018-11-25T03:54:03.615Z,15.48
2018-11-25T03:55:05.371Z,15.48
2018-11-25T03:56:07.123Z,15.46
2018-11-25T03:57:08.879Z,15.47
2018-11-25T03:58:10.627Z,15.46
2018-11-25T03:59:12.407Z,15.47
2018-11-25T04:00:14.162Z,15.46
2018-11-25T04:01:15.916Z,15.46
2018-11-25T04:02:17.673Z,15.47
2018-11-25T04:03:19.441Z,15.47
2018-11-25T04:04:21.229Z,15.46
2018-11-25T04:05:22.972Z,15.47
2018-11-25T04:06:24.723Z,15.46
2018-11-25T04:07:26.480Z,15.46
2018-11-25T04:08:28.253Z,15.46
2018-11-25T04:09:30.032Z,15.46
2018-11-25T04:10:31.795Z,15.45
2018-11-25T04:11:33.559Z,15.46
2018-11-25T04:12:35.323Z,15.47
2018-11-25T04:13:37.073Z,15.46
2018-11-25T04:14:38.829Z,15.46
2018-11-25T04:15:40.581Z,15.46
2018-11-25T04:16:42.338Z,15.45
2018-11-25T04:17:44.109Z,15.46
2018-11-25T04:18:45.877Z,15.46
2018-11-25T04:19:47.647Z,15.45
2018-11-25T04:20:49.405Z,15.45
2018-11-25T04:21:51.164Z,15.45
2018-11-25T04:22:52.919Z,15.45
2018-11-25T04:23:54.686Z,15.44
2018-11-25T04:24:56.472Z,15.45
2018-11-25T04:25:58.225Z,15.44
2018-11-25T04:27:01.212Z,15.45
2018-11-25T04:28:03.025Z,15.45
2018-11-25T04:29:05.701Z,15.45
2018-11-25T04:30:07.498Z,15.44
2018-11-25T04:31:09.308Z,15.45
2018-11-25T04:32:11.052Z,15.44
2018-11-25T04:33:13.969Z,15.45
2018-11-25T04:34:15.736Z,15.45
2018-11-25T04:35:17.523Z,15.45
2018-11-25T04:36:19.335Z,15.44
2018-11-25T04:37:21.157Z,15.44
2018-11-25T04:38:22.911Z,15.44
2018-11-25T04:39:24.681Z,15.44
2018-11-25T04:40:26.463Z,15.44
2018-11-25T04:41:28.215Z,15.43
2018-11-25T04:42:29.965Z,15.43
2018-11-25T04:43:31.715Z,15.44
2018-11-25T04:44:33.482Z,15.43
2018-11-25T04:45:35.248Z,15.44
2018-11-25T04:46:37.011Z,15.43
2018-11-25T04:47:38.778Z,15.43
2018-11-25T04:48:40.536Z,15.43
2018-11-25T04:49:42.288Z,15.43
2018-11-25T04:50:44.076Z,15.44
2018-11-25T04:51:45.833Z,15.44
2018-11-25T04:52:48.042Z,15.44
2018-11-25T04:53:49.789Z,15.43
2018-11-25T04:54:51.548Z,15.42
2018-11-25T04:55:53.329Z,15.43
2018-11-25T04:56:55.080Z,15.42
2018-11-25T04:57:56.843Z,15.43
2018-11-25T04:58:58.619Z,15.44
2018-11-25T05:00:00.398Z,15.43
2018-11-25T05:01:02.179Z,15.43
2018-11-25T05:02:03.963Z,15.43
2018-11-25T05:03:05.739Z,15.43
2018-11-25T05:04:07.502Z,15.44
2018-11-25T05:05:09.250Z,15.43
2018-11-25T05:06:11.029Z,15.43
2018-11-25T05:07:12.777Z,15.43
2018-11-25T05:08:14.558Z,15.43
2018-11-25T05:09:16.319Z,15.43
2018-11-25T05:10:18.069Z,15.43
2018-11-25T05:11:19.842Z,15.43
2018-11-25T05:12:21.603Z,15.43
2018-11-25T05:13:23.360Z,15.42
2018-11-25T05:14:25.116Z,15.41
2018-11-25T05:15:26.899Z,15.41
2018-11-25T05:16:28.681Z,15.42
2018-11-25T05:17:30.451Z,15.41
2018-11-25T05:18:32.203Z,15.41
2018-11-25T05:19:33.969Z,15.42
2018-11-25T05:20:35.728Z,15.41
2018-11-25T05:21:37.508Z,15.42
2018-11-25T05:22:41.033Z,15.41
2018-11-25T05:23:42.791Z,15.42
2018-11-25T05:24:44.551Z,15.41
2018-11-25T05:25:47.716Z,15.41
2018-11-25T05:26:49.498Z,15.41
2018-11-25T05:27:51.843Z,15.41
2018-11-25T05:28:53.583Z,15.40
2018-11-25T05:29:55.368Z,15.40
2018-11-25T05:30:57.139Z,15.40
2018-11-25T05:31:58.926Z,15.40
2018-11-25T05:33:02.136Z,15.41
2018-11-25T05:34:03.915Z,15.41
2018-11-25T05:35:05.676Z,15.40
2018-11-25T05:36:07.457Z,15.40
2018-11-25T05:37:09.228Z,15.40
2018-11-25T05:38:10.993Z,15.39
2018-11-25T05:39:12.756Z,15.41
2018-11-25T05:40:14.518Z,15.40
2018-11-25T05:41:16.279Z,15.40
2018-11-25T05:42:18.061Z,15.41
2018-11-25T05:43:19.832Z,15.40
2018-11-25T05:44:21.594Z,15.40
2018-11-25T05:45:24.785Z,15.41
2018-11-25T05:46:26.549Z,15.40
2018-11-25T05:47:28.750Z,15.39
2018-11-25T05:48:30.510Z,15.40
2018-11-25T05:49:36.817Z,15.41
2018-11-25T05:50:34.082Z,15.39
2018-11-25T05:51:35.839Z,15.40
2018-11-25T05:52:37.650Z,15.40
2018-11-25T05:53:39.399Z,15.40
2018-11-25T05:54:41.147Z,15.39
2018-11-25T05:55:42.908Z,15.39
2018-11-25T05:56:44.660Z,15.39
2018-11-25T05:57:46.449Z,15.39
2018-11-25T05:58:48.296Z,15.38
2018-11-25T05:59:50.049Z,15.39
2018-11-25T06:00:51.816Z,15.40
2018-11-25T06:01:53.646Z,15.39
2018-11-25T06:02:55.430Z,15.39
2018-11-25T06:03:57.186Z,15.39
2018-11-25T06:04:58.951Z,15.38
2018-11-25T06:06:00.696Z,15.39
2018-11-25T06:07:02.477Z,15.39
2018-11-25T06:08:04.268Z,15.38
2018-11-25T06:09:06.029Z,15.39
2018-11-25T06:10:07.786Z,15.38
2018-11-25T06:11:09.545Z,15.39
2018-11-25T06:12:12.794Z,15.38
2018-11-25T06:13:15.724Z,15.39
2018-11-25T06:14:17.481Z,15.39
2018-11-25T06:15:19.248Z,15.39
2018-11-25T06:16:21.010Z,15.40
2018-11-25T06:17:22.778Z,15.39
2018-11-25T06:18:24.548Z,15.38
2018-11-25T06:19:26.299Z,15.38
2018-11-25T06:20:28.064Z,15.38
2018-11-25T06:21:29.838Z,15.38
2018-11-25T06:22:31.617Z,15.38
2018-11-25T06:23:33.414Z,15.38
2018-11-25T06:24:35.671Z,15.38
2018-11-25T06:25:37.427Z,15.38
2018-11-25T06:26:39.185Z,15.38
2018-11-25T06:27:40.952Z,15.38
2018-11-25T06:28:42.744Z,15.38
2018-11-25T06:29:44.504Z,15.37
2018-11-25T06:30:46.292Z,15.37
2018-11-25T06:31:48.056Z,15.38
2018-11-25T06:32:49.816Z,15.38
2018-11-25T06:33:52.226Z,15.38
2018-11-25T06:34:54.006Z,15.37
2018-11-25T06:35:55.765Z,15.37
2018-11-25T06:36:57.520Z,15.36
2018-11-25T06:37:59.324Z,15.37
2018-11-25T06:39:01.850Z,15.38
2018-11-25T06:40:03.615Z,15.37
2018-11-25T06:41:05.375Z,15.37
2018-11-25T06:42:07.138Z,15.36
2018-11-25T06:43:08.901Z,15.37
2018-11-25T06:44:10.710Z,15.36
2018-11-25T06:45:12.463Z,15.37
2018-11-25T06:46:14.233Z,15.37
2018-11-25T06:47:16.011Z,15.37
2018-11-25T06:48:17.781Z,15.36
2018-11-25T06:49:19.565Z,15.36
2018-11-25T06:50:21.320Z,15.35
2018-11-25T06:51:24.460Z,15.35
2018-11-25T06:52:26.209Z,15.35
2018-11-25T06:53:27.962Z,15.37
2018-11-25T06:54:30.972Z,15.36
2018-11-25T06:55:32.765Z,15.36
2018-11-25T06:56:34.522Z,15.36
2018-11-25T06:57:36.282Z,15.36
2018-11-25T06:58:38.046Z,15.36
2018-11-25T06:59:39.826Z,15.36
2018-11-25T07:00:42.951Z,15.35
2018-11-25T07:01:44.725Z,15.35
2018-11-25T07:02:46.467Z,15.35
2018-11-25T07:03:48.223Z,15.35
2018-11-25T07:04:50.021Z,15.34
2018-11-25T07:05:51.786Z,15.36
2018-11-25T07:06:53.559Z,15.34
2018-11-25T07:07:55.331Z,15.35
2018-11-25T07:08:57.151Z,15.35
2018-11-25T07:09:58.927Z,15.35
2018-11-25T07:11:00.683Z,15.35
2018-11-25T07:12:02.455Z,15.34
2018-11-25T07:13:04.217Z,15.36
2018-11-25T07:14:05.979Z,15.35
2018-11-25T07:15:07.773Z,15.35
2018-11-25T07:16:09.551Z,15.34
2018-11-25T07:17:11.325Z,15.33
2018-11-25T07:18:13.092Z,15.35
2018-11-25T07:19:14.862Z,15.33
2018-11-25T07:20:16.649Z,15.33
2018-11-25T07:21:18.420Z,15.34
2018-11-25T07:22:20.184Z,15.32
2018-11-25T07:23:23.105Z,15.34
2018-11-25T07:24:24.935Z,15.33
2018-11-25T07:25:26.724Z,15.33
2018-11-25T07:26:28.475Z,15.34
2018-11-25T07:27:30.223Z,15.33
2018-11-25T07:28:32.001Z,15.31
2018-11-25T07:29:33.755Z,15.33
2018-11-25T07:30:35.555Z,15.32
2018-11-25T07:31:37.319Z,15.33
2018-11-25T07:32:39.093Z,15.33
2018-11-25T07:33:40.885Z,15.33
2018-11-25T07:34:43.177Z,15.32
2018-11-25T07:35:44.964Z,15.31
2018-11-25T07:36:46.721Z,15.32
2018-11-25T07:37:48.485Z,15.32
2018-11-25T07:38:50.252Z,15.32
2018-11-25T07:39:52.023Z,15.31
2018-11-25T07:40:53.804Z,15.32
2018-11-25T07:41:55.569Z,15.31
2018-11-25T07:42:57.339Z,15.31
2018-11-25T07:43:59.118Z,15.31
2018-11-25T07:45:02.141Z,15.31
2018-11-25T07:46:03.936Z,15.30
2018-11-25T07:47:05.702Z,15.31
2018-11-25T07:48:07.468Z,15.30
2018-11-25T07:49:09.235Z,15.32
2018-11-25T07:50:10.999Z,15.31
2018-11-25T07:51:12.787Z,15.31
2018-11-25T07:52:14.548Z,15.33
2018-11-25T07:53:17.287Z,15.31
2018-11-25T07:54:19.080Z,15.29
2018-11-25T07:55:21.926Z,15.30
2018-11-25T07:56:23.743Z,15.30
2018-11-25T07:57:25.493Z,15.30
2018-11-25T07:58:27.252Z,15.31
2018-11-25T07:59:29.021Z,15.32
2018-11-25T08:00:30.801Z,15.30
2018-11-25T08:01:32.597Z,15.31
2018-11-25T08:02:41.175Z,15.31
2018-11-25T08:03:36.177Z,15.29
2018-11-25T08:04:37.959Z,15.29
2018-11-25T08:05:39.708Z,15.29
2018-11-25T08:06:41.497Z,15.30
2018-11-25T08:07:43.279Z,15.28
2018-11-25T08:08:46.248Z,15.29
2018-11-25T08:09:48.032Z,15.29
2018-11-25T08:10:52.508Z,15.29
2018-11-25T08:11:54.360Z,15.30
2018-11-25T08:12:56.577Z,15.29
2018-11-25T08:13:57.937Z,15.29
2018-11-25T08:14:59.718Z,15.29
2018-11-25T08:16:01.485Z,15.29
2018-11-25T08:17:03.296Z,15.28
2018-11-25T08:18:06.532Z,15.28
2018-11-25T08:19:08.304Z,15.28
2018-11-25T08:20:10.052Z,15.29
2018-11-25T08:21:11.819Z,15.30
2018-11-25T08:22:13.618Z,15.29
2018-11-25T08:23:15.674Z,15.29
2018-11-25T08:24:17.209Z,15.29
2018-11-25T08:25:18.999Z,15.29
2018-11-25T08:26:20.770Z,15.29
2018-11-25T08:27:22.558Z,15.29
2018-11-25T08:28:24.318Z,15.28
2018-11-25T08:29:26.081Z,15.28
2018-11-25T08:30:27.881Z,15.28
2018-11-25T08:31:29.664Z,15.27
2018-11-25T08:32:31.476Z,15.27
2018-11-25T08:33:33.237Z,15.29
2018-11-25T08:34:35.012Z,15.52
2018-11-25T08:35:36.772Z,15.73
2018-11-25T08:36:38.628Z,15.80
2018-11-25T08:37:40.389Z,15.81
2018-11-25T08:38:42.154Z,15.81
2018-11-25T08:39:43.925Z,15.83
2018-11-25T08:40:46.091Z,15.84
2018-11-25T08:41:47.878Z,15.81
2018-11-25T08:42:49.677Z,15.81
2018-11-25T08:43:51.437Z,15.77
2018-11-25T08:44:54.105Z,15.75
2018-11-25T08:45:55.849Z,15.70
2018-11-25T08:46:57.613Z,15.70
2018-11-25T08:47:59.414Z,15.72
2018-11-25T08:49:01.190Z,15.72
2018-11-25T08:50:02.952Z,15.77
2018-11-25T08:51:04.724Z,15.81
2018-11-25T08:52:06.498Z,15.83
2018-11-25T08:53:08.310Z,15.82
2018-11-25T08:54:10.088Z,15.91
2018-11-25T08:55:11.860Z,15.91
2018-11-25T08:56:13.626Z,15.91
2018-11-25T08:57:15.402Z,15.94
2018-11-25T08:58:19.126Z,15.97
2018-11-25T08:59:20.898Z,15.97
2018-11-25T09:00:22.670Z,15.97
2018-11-25T09:01:24.445Z,16.03
2018-11-25T09:02:26.214Z,16.04
2018-11-25T09:03:28.018Z,16.14
2018-11-25T09:04:29.779Z,16.13
2018-11-25T09:05:38.159Z,16.09
2018-11-25T09:06:39.954Z,16.07
2018-11-25T09:07:41.738Z,16.14
2018-11-25T09:08:43.528Z,16.16
2018-11-25T09:09:45.351Z,16.08
2018-11-25T09:10:47.144Z,16.19
2018-11-25T09:11:48.921Z,16.19
2018-11-25T09:12:55.744Z,16.10
2018-11-25T09:13:52.518Z,16.08
2018-11-25T09:14:54.280Z,16.15
2018-11-25T09:15:56.051Z,16.14
2018-11-25T09:16:57.817Z,16.17
2018-11-25T09:17:59.574Z,16.11
2018-11-25T09:19:01.400Z,16.10
2018-11-25T09:20:03.167Z,16.17
2018-11-25T09:21:04.936Z,16.15
2018-11-25T09:22:06.734Z,16.14
2018-11-25T09:23:08.507Z,16.15
2018-11-25T09:24:10.300Z,16.11
2018-11-25T09:25:12.083Z,16.23
2018-11-25T09:26:13.850Z,16.27
2018-11-25T09:27:15.628Z,16.46
2018-11-25T09:28:17.417Z,16.47
2018-11-25T09:29:19.222Z,16.45
2018-11-25T09:30:21.001Z,16.39
2018-11-25T09:31:22.798Z,16.40
2018-11-25T09:32:24.569Z,16.35
2018-11-25T09:33:26.317Z,16.31
2018-11-25T09:34:28.148Z,16.28
2018-11-25T09:35:29.917Z,16.23
2018-11-25T09:36:31.691Z,16.19
2018-11-25T09:37:33.748Z,16.21
2018-11-25T09:38:35.527Z,16.23
2018-11-25T09:39:37.311Z,16.18
2018-11-25T09:40:39.103Z,16.27
2018-11-25T09:41:40.873Z,16.26
2018-11-25T09:42:42.630Z,16.24
2018-11-25T09:43:44.563Z,16.25
2018-11-25T09:44:46.370Z,16.22
2018-11-25T09:45:48.163Z,16.25
2018-11-25T09:46:49.970Z,16.24
2018-11-25T09:47:51.721Z,16.30
2018-11-25T09:48:53.483Z,16.28
2018-11-25T09:49:55.666Z,16.31
2018-11-25T09:50:57.446Z,16.32
2018-11-25T09:51:59.208Z,16.27
2018-11-25T09:53:00.993Z,16.30
2018-11-25T09:54:02.750Z,16.31
2018-11-25T09:55:04.533Z,16.26
2018-11-25T09:56:06.285Z,16.27
2018-11-25T09:57:08.211Z,16.26
2018-11-25T09:58:09.972Z,16.35
2018-11-25T09:59:11.730Z,16.32
2018-11-25T10:00:13.520Z,16.41
2018-11-25T10:01:15.297Z,16.42
2018-11-25T10:02:17.076Z,16.37
2018-11-25T10:03:18.855Z,16.34
2018-11-25T10:04:20.615Z,16.29
2018-11-25T10:05:22.416Z,16.33
2018-11-25T10:06:24.195Z,16.31
2018-11-25T10:07:25.970Z,16.27
2018-11-25T10:08:27.725Z,16.31
2018-11-25T10:09:29.487Z,16.30
2018-11-25T10:10:31.291Z,16.27
2018-11-25T10:11:33.065Z,16.26
2018-11-25T10:12:34.846Z,16.31
2018-11-25T10:13:36.617Z,16.42
2018-11-25T10:14:38.386Z,16.47
2018-11-25T10:15:40.732Z,16.43
2018-11-25T10:16:42.860Z,16.38
2018-11-25T10:17:44.634Z,16.40
2018-11-25T10:18:46.402Z,16.40
2018-11-25T10:19:48.178Z,16.43
2018-11-25T10:20:49.981Z,16.56
2018-11-25T10:21:51.770Z,16.61
2018-11-25T10:22:53.566Z,16.58
2018-11-25T10:23:55.347Z,16.59
2018-11-25T10:24:57.112Z,16.58
2018-11-25T10:25:58.922Z,16.61
2018-11-25T10:27:00.706Z,16.57
2018-11-25T10:28:02.473Z,16.61
2018-11-25T10:29:04.236Z,16.62
2018-11-25T10:30:06.002Z,16.62
2018-11-25T10:31:07.798Z,16.62
2018-11-25T10:32:10.242Z,16.64
2018-11-25T10:33:12.017Z,16.61
2018-11-25T10:34:13.789Z,16.60
2018-11-25T10:35:15.580Z,16.66
2018-11-25T10:36:20.138Z,16.67
2018-11-25T10:37:21.917Z,16.71
2018-11-25T10:38:23.685Z,16.73
2018-11-25T10:39:25.451Z,16.76
2018-11-25T10:40:27.224Z,16.81
2018-11-25T10:41:29.026Z,16.73
2018-11-25T10:42:31.027Z,16.71
2018-11-25T10:43:33.658Z,16.72
2018-11-25T10:44:35.417Z,16.74
2018-11-25T10:45:37.204Z,16.72
2018-11-25T10:46:39.021Z,16.75
2018-11-25T10:47:40.778Z,16.77
2018-11-25T10:48:42.537Z,16.78
2018-11-25T10:49:44.551Z,16.77
2018-11-25T10:50:51.059Z,16.75
2018-11-25T10:51:48.560Z,16.74
2018-11-25T10:52:50.364Z,16.79
2018-11-25T10:53:52.128Z,16.75
2018-11-25T10:54:53.895Z,16.86
2018-11-25T10:55:55.659Z,16.84
2018-11-25T10:56:57.444Z,16.79
2018-11-25T10:58:00.271Z,16.74
2018-11-25T10:59:02.048Z,16.76
2018-11-25T11:00:03.983Z,16.79
2018-11-25T11:01:11.161Z,16.81
2018-11-25T11:02:19.483Z,16.82
2018-11-25T11:03:26.873Z,16.76
2018-11-25T11:04:34.152Z,16.76
2018-11-25T11:05:41.417Z,16.80
2018-11-25T11:07:49.734Z,16.79
2018-11-25T11:08:51.505Z,16.79
2018-11-25T11:09:54.079Z,16.88
2018-11-25T11:10:55.849Z,16.89
2018-11-25T11:11:57.609Z,16.83
2018-11-25T11:12:59.411Z,16.88
2018-11-25T11:14:01.194Z,16.85
2018-11-25T11:15:02.963Z,16.88
2018-11-25T11:16:04.718Z,16.88
2018-11-25T11:17:06.492Z,16.84
2018-11-25T11:18:09.103Z,16.89
2018-11-25T11:19:10.878Z,16.84
2018-11-25T11:20:12.668Z,16.84
2018-11-25T11:21:15.335Z,16.79
2018-11-25T11:22:17.785Z,16.86
2018-11-25T11:23:19.556Z,16.85
2018-11-25T11:24:21.335Z,16.94
2018-11-25T11:25:23.116Z,16.98
2018-11-25T11:26:24.902Z,16.92
2018-11-25T11:27:26.662Z,16.88
2018-11-25T11:28:28.449Z,16.85
2018-11-25T11:29:30.228Z,16.90
2018-11-25T11:30:32.004Z,16.93
2018-11-25T11:31:33.769Z,16.92
2018-11-25T11:32:35.538Z,16.91
2018-11-25T11:33:37.364Z,16.86
2018-11-25T11:34:39.130Z,16.90
2018-11-25T11:35:40.937Z,16.97
2018-11-25T11:36:42.784Z,16.86
2018-11-25T11:37:44.551Z,17.00
2018-11-25T11:38:46.345Z,16.92
2018-11-25T11:39:48.344Z,16.93
2018-11-25T11:40:50.114Z,16.94
2018-11-25T11:41:51.893Z,16.95
2018-11-25T11:42:53.660Z,16.98
2018-11-25T11:43:55.438Z,16.97
2018-11-25T11:44:57.249Z,16.97
2018-11-25T11:45:59.023Z,17.08
2018-11-25T11:47:01.332Z,17.05
2018-11-25T11:48:03.104Z,17.05
2018-11-25T11:49:06.071Z,17.00
2018-11-25T11:50:07.832Z,17.09
2018-11-25T11:51:09.607Z,17.06
2018-11-25T11:52:11.390Z,17.11
2018-11-25T11:53:13.181Z,17.05
2018-11-25T11:54:14.989Z,17.14
2018-11-25T11:55:16.769Z,17.15
2018-11-25T11:56:18.553Z,17.15
2018-11-25T11:57:20.301Z,17.12
2018-11-25T11:58:22.112Z,17.08
2018-11-25T11:59:24.875Z,17.07
2018-11-25T12:00:26.686Z,17.06
2018-11-25T12:01:28.447Z,17.05
2018-11-25T12:02:31.657Z,17.05
2018-11-25T12:03:32.048Z,17.03
2018-11-25T12:04:33.829Z,17.08
2018-11-25T12:05:35.599Z,17.09
2018-11-25T12:06:37.358Z,17.19
2018-11-25T12:07:39.147Z,17.12
2018-11-25T12:08:40.922Z,17.14
2018-11-25T12:09:42.721Z,17.11
2018-11-25T12:10:44.579Z,17.12
2018-11-25T12:11:46.350Z,17.04
2018-11-25T12:12:48.130Z,17.13
2018-11-25T12:13:49.897Z,17.10
2018-11-25T12:14:51.732Z,17.08
2018-11-25T12:15:53.501Z,17.06
2018-11-25T12:16:55.278Z,17.14
2018-11-25T12:17:57.043Z,17.13
2018-11-25T12:18:58.830Z,17.18
2018-11-25T12:20:00.633Z,17.18
2018-11-25T12:21:02.399Z,17.10
2018-11-25T12:22:04.169Z,17.09
2018-11-25T12:23:05.959Z,17.05
2018-11-25T12:24:07.732Z,17.10
2018-11-25T12:25:09.534Z,17.12
2018-11-25T12:26:11.304Z,17.15
2018-11-25T12:27:13.081Z,17.16
2018-11-25T12:28:14.870Z,17.11
2018-11-25T12:29:18.765Z,17.13
2018-11-25T12:30:20.796Z,17.14
2018-11-25T12:31:23.071Z,17.15
2018-11-25T12:32:24.847Z,17.21
2018-11-25T12:33:26.618Z,17.20
2018-11-25T12:34:28.386Z,17.18
2018-11-25T12:35:30.178Z,17.22
2018-11-25T12:36:31.952Z,17.20
2018-11-25T12:37:36.043Z,17.18
2018-11-25T12:38:36.457Z,17.20
2018-11-25T12:39:38.220Z,17.13
2018-11-25T12:40:40.007Z,17.12
2018-11-25T12:41:41.772Z,17.13
2018-11-25T12:42:43.530Z,17.19
2018-11-25T12:43:45.288Z,17.16
2018-11-25T12:44:47.043Z,17.16
2018-11-25T12:45:48.841Z,17.13
2018-11-25T12:46:50.932Z,17.18
2018-11-25T12:47:52.705Z,17.14
2018-11-25T12:48:54.557Z,17.14
2018-11-25T12:49:56.323Z,17.25
2018-11-25T12:50:58.100Z,17.22
2018-11-25T12:51:59.871Z,17.20
2018-11-25T12:53:01.631Z,17.15
2018-11-25T12:54:04.393Z,17.16
2018-11-25T12:55:06.158Z,17.14
2018-11-25T12:56:08.880Z,17.16
2018-11-25T12:57:10.643Z,17.16
2018-11-25T12:58:12.388Z,17.25
2018-11-25T12:59:14.189Z,17.28
2018-11-25T13:00:15.970Z,17.20
2018-11-25T13:01:17.764Z,17.23
2018-11-25T13:02:20.575Z,17.22
2018-11-25T13:03:22.360Z,17.10
2018-11-25T13:04:27.897Z,17.20
2018-11-25T13:05:25.947Z,17.15
2018-11-25T13:06:27.752Z,17.17
2018-11-25T13:07:29.527Z,17.14
2018-11-25T13:08:31.308Z,17.19
2018-11-25T13:09:33.869Z,17.16
2018-11-25T13:10:35.640Z,17.18
2018-11-25T13:11:37.440Z,17.23
2018-11-25T13:12:39.212Z,17.24
2018-11-25T13:13:40.981Z,17.21
2018-11-25T13:14:42.771Z,17.20
2018-11-25T13:15:44.547Z,17.17
2018-11-25T13:16:46.337Z,17.24
2018-11-25T13:17:48.116Z,17.32
2018-11-25T13:18:49.889Z,17.26